createdAt,value
2022-08-19T00:02:06.766Z,63.92
2022-08-19T00:04:37.968Z,64.45
2022-08-19T00:07:08.509Z,64.04
2022-08-19T00:09:37.518Z,64.56
2022-08-19T00:12:06.863Z,64.36
2022-08-19T00:14:35.454Z,64.76
2022-08-19T00:17:06.156Z,64.87
2022-08-19T00:19:35.228Z,64.89
2022-08-19T00:22:04.318Z,64.93
2022-08-19T00:24:33.132Z,65.08
2022-08-19T00:27:26.144Z,64.93
2022-08-19T00:29:52.458Z,64.98
2022-08-19T00:32:22.977Z,65.04
2022-08-19T00:34:54.495Z,65.12
2022-08-19T00:37:24.084Z,64.93
2022-08-19T00:39:53.187Z,65.14
2022-08-19T00:42:23.785Z,64.81
2022-08-19T00:44:52.625Z,65.39
2022-08-19T00:47:22.545Z,65.29
2022-08-19T00:49:54.766Z,65.15
2022-08-19T00:52:28.118Z,65.38
2022-08-19T00:54:57.380Z,65.28
2022-08-19T00:57:31.811Z,65.38
2022-08-19T01:00:03.958Z,65.28
2022-08-19T01:02:35.128Z,65.56
2022-08-19T01:05:10.955Z,65.49
2022-08-19T01:07:41.289Z,65.49
2022-08-19T01:10:15.131Z,65.31
2022-08-19T01:12:43.898Z,65.35
2022-08-19T01:15:16.691Z,65.70
2022-08-19T01:17:47.959Z,65.39
2022-08-19T01:20:22.285Z,65.25
2022-08-19T01:22:54.816Z,65.62
2022-08-19T01:25:28.400Z,65.25
2022-08-19T01:28:03.055Z,65.54
2022-08-19T01:30:44.440Z,65.27
2022-08-19T01:33:20.256Z,65.12
2022-08-19T01:35:53.620Z,65.36
2022-08-19T01:38:27.715Z,65.44
2022-08-19T01:40:56.177Z,65.37
2022-08-19T01:43:24.573Z,65.43
2022-08-19T01:45:53.704Z,65.71
2022-08-19T01:48:22.926Z,65.80
2022-08-19T01:50:51.321Z,65.51
2022-08-19T01:53:19.893Z,65.83
2022-08-19T01:55:49.701Z,65.67
2022-08-19T01:58:23.714Z,65.56
2022-08-19T02:00:52.198Z,65.44
2022-08-19T02:03:20.614Z,65.82
2022-08-19T02:05:49.548Z,65.73
2022-08-19T02:08:18.007Z,65.74
2022-08-19T02:10:47.076Z,65.72
2022-08-19T02:13:16.881Z,65.78
2022-08-19T02:15:51.344Z,65.99
2022-08-19T02:18:19.993Z,66.14
2022-08-19T02:20:49.085Z,66.21
2022-08-19T02:23:19.188Z,66.43
2022-08-19T02:25:49.638Z,66.16
2022-08-19T02:28:19.484Z,65.95
2022-08-19T02:30:49.753Z,66.16
2022-08-19T02:33:18.882Z,66.31
2022-08-19T02:35:48.880Z,66.34
2022-08-19T02:38:28.571Z,66.51
2022-08-19T02:40:59.780Z,66.48
2022-08-19T02:43:33.716Z,66.63
2022-08-19T02:46:03.465Z,66.69
2022-08-19T02:48:33.966Z,66.62
2022-08-19T02:51:02.812Z,66.74
2022-08-19T02:53:31.399Z,66.68
2022-08-19T02:55:59.835Z,66.70
2022-08-19T02:58:29.619Z,66.83
2022-08-19T03:00:59.663Z,66.87
2022-08-19T03:03:28.562Z,67.20
2022-08-19T03:06:11.512Z,67.72
2022-08-19T03:08:41.668Z,67.58
2022-08-19T03:11:16.942Z,68.06
2022-08-19T03:13:46.935Z,67.78
2022-08-19T03:16:15.507Z,68.00
2022-08-19T03:18:43.975Z,68.09
2022-08-19T03:21:19.146Z,68.07
2022-08-19T03:23:48.077Z,68.49
2022-08-19T03:26:17.235Z,68.09
2022-08-19T03:28:57.881Z,68.30
2022-08-19T03:31:42.037Z,68.31
2022-08-19T03:34:18.285Z,68.51
2022-08-19T03:36:47.719Z,68.32
2022-08-19T03:39:17.066Z,68.47
2022-08-19T03:41:48.199Z,68.14
2022-08-19T03:44:21.627Z,68.43
2022-08-19T03:46:52.939Z,68.62
2022-08-19T03:49:27.079Z,68.68
2022-08-19T03:52:01.276Z,68.61
2022-08-19T03:54:30.956Z,68.27
2022-08-19T03:57:00.371Z,68.67
2022-08-19T03:59:34.450Z,68.72
2022-08-19T04:02:10.173Z,68.65
2022-08-19T04:04:39.843Z,69.01
2022-08-19T04:07:09.418Z,68.39
2022-08-19T04:09:39.196Z,68.48
2022-08-19T04:12:08.750Z,68.83
2022-08-19T04:14:38.724Z,69.02
2022-08-19T04:17:07.363Z,69.32
2022-08-19T04:19:38.010Z,69.38
2022-08-19T04:22:07.751Z,69.54
2022-08-19T04:24:37.713Z,69.24
2022-08-19T04:27:07.545Z,69.59
2022-08-19T04:29:40.543Z,69.68
2022-08-19T04:32:09.889Z,69.77
2022-08-19T04:35:02.516Z,69.95
2022-08-19T04:37:34.996Z,69.92
2022-08-19T04:40:25.225Z,69.90
2022-08-19T04:42:54.471Z,69.76
2022-08-19T04:45:24.844Z,69.85
2022-08-19T04:48:26.508Z,70.03
2022-08-19T04:50:46.712Z,70.17
2022-08-19T04:53:15.144Z,69.97
2022-08-19T04:55:43.959Z,69.88
2022-08-19T04:58:12.449Z,69.97
2022-08-19T05:00:42.667Z,69.92
2022-08-19T05:03:11.677Z,69.89
2022-08-19T05:05:44.583Z,70.41
2022-08-19T05:08:15.393Z,69.48
2022-08-19T05:10:45.545Z,69.49
2022-08-19T05:13:14.060Z,69.50
2022-08-19T05:15:43.977Z,69.49
2022-08-19T05:18:29.970Z,69.22
2022-08-19T05:21:15.926Z,69.29
2022-08-19T05:23:45.691Z,69.38
2022-08-19T05:26:14.139Z,69.29
2022-08-19T05:28:42.595Z,68.80
2022-08-19T05:31:13.075Z,69.01
2022-08-19T05:33:41.724Z,68.56
2022-08-19T05:36:10.517Z,68.50
2022-08-19T05:38:39.098Z,68.25
2022-08-19T05:41:10.530Z,68.34
2022-08-19T05:43:40.324Z,68.21
2022-08-19T05:46:11.018Z,68.37
2022-08-19T05:48:39.396Z,68.00
2022-08-19T05:51:09.236Z,67.87
2022-08-19T05:53:38.217Z,67.68
2022-08-19T05:56:07.944Z,67.35
2022-08-19T05:58:36.549Z,67.31
2022-08-19T06:01:06.925Z,67.48
2022-08-19T06:03:38.423Z,67.26
2022-08-19T06:06:08.390Z,66.73
2022-08-19T06:08:38.353Z,66.35
2022-08-19T06:11:20.939Z,66.39
2022-08-19T06:13:59.724Z,66.27
2022-08-19T06:16:29.911Z,65.81
2022-08-19T06:19:03.354Z,64.81
2022-08-19T06:21:33.151Z,63.73
2022-08-19T06:24:02.407Z,62.71
2022-08-19T06:26:30.893Z,62.73
2022-08-19T06:28:59.580Z,62.45
2022-08-19T06:31:34.657Z,62.92
2022-08-19T06:34:06.209Z,63.60
2022-08-19T06:36:39.232Z,63.89
2022-08-19T06:39:11.092Z,64.41
2022-08-19T06:41:49.326Z,64.34
2022-08-19T06:44:21.723Z,63.86
2022-08-19T06:46:54.817Z,63.28
2022-08-19T06:49:28.620Z,62.94
2022-08-19T06:51:58.189Z,62.55
2022-08-19T06:54:30.895Z,61.88
2022-08-19T06:57:02.939Z,61.02
2022-08-19T06:59:34.125Z,60.28
2022-08-19T07:02:07.541Z,58.86
2022-08-19T07:04:39.227Z,58.25
2022-08-19T07:07:19.714Z,57.17
2022-08-19T07:09:52.256Z,56.64
2022-08-19T07:12:30.432Z,56.27
2022-08-19T07:15:00.156Z,55.90
2022-08-19T07:17:30.586Z,55.57
2022-08-19T07:20:05.160Z,54.81
2022-08-19T07:22:35.639Z,55.05
2022-08-19T07:25:05.912Z,54.41
2022-08-19T07:27:34.943Z,52.80
2022-08-19T07:30:05.513Z,53.33
2022-08-19T07:32:33.976Z,52.95
2022-08-19T07:35:04.455Z,51.44
2022-08-19T07:37:33.586Z,50.71
2022-08-19T07:40:02.742Z,49.24
2022-08-19T07:42:31.671Z,49.13
2022-08-19T07:45:00.813Z,47.55
2022-08-19T07:47:58.376Z,46.61
2022-08-19T07:50:22.559Z,46.39
2022-08-19T07:52:52.858Z,45.66
2022-08-19T07:55:41.654Z,46.04
2022-08-19T07:58:13.392Z,44.70
2022-08-19T08:00:42.472Z,43.76
2022-08-19T08:03:11.055Z,42.89
2022-08-19T08:06:00.640Z,41.37
2022-08-19T08:08:48.246Z,40.82
2022-08-19T08:11:20.663Z,38.26
2022-08-19T08:14:01.148Z,38.78
2022-08-19T08:16:39.661Z,40.39
2022-08-19T08:19:20.646Z,40.77
2022-08-19T08:21:56.936Z,39.39
2022-08-19T08:24:28.291Z,40.39
2022-08-19T08:26:58.377Z,39.50
2022-08-19T08:29:27.250Z,39.31
2022-08-19T08:32:04.510Z,39.37
2022-08-19T08:34:43.335Z,39.54
2022-08-19T08:37:13.116Z,40.64
2022-08-19T08:39:44.819Z,40.22
2022-08-19T08:42:21.317Z,40.20
2022-08-19T08:47:37.198Z,41.85
2022-08-19T08:50:16.534Z,41.17
2022-08-19T08:52:50.307Z,41.47
2022-08-19T08:55:24.616Z,40.69
2022-08-19T08:58:02.774Z,41.50
2022-08-19T09:00:41.340Z,39.63
2022-08-19T09:03:23.179Z,40.33
2022-08-19T09:06:01.378Z,40.04
2022-08-19T09:08:44.201Z,39.95
2022-08-19T09:11:42.973Z,39.75
2022-08-19T09:14:40.728Z,39.32
2022-08-19T09:17:09.076Z,40.84
2022-08-19T09:19:38.745Z,40.96
2022-08-19T09:22:08.611Z,40.66
2022-08-19T09:24:40.834Z,40.63
2022-08-19T09:27:18.440Z,39.61
2022-08-19T09:29:50.094Z,39.95
2022-08-19T09:32:26.571Z,39.81
2022-08-19T09:34:56.018Z,39.77
2022-08-19T09:37:25.197Z,40.87
2022-08-19T09:39:55.940Z,42.39
2022-08-19T09:42:30.098Z,41.44
2022-08-19T09:45:10.276Z,42.88
2022-08-19T09:47:40.529Z,44.04
2022-08-19T09:50:16.421Z,42.60
2022-08-19T09:52:55.746Z,41.38
2022-08-19T09:55:31.735Z,41.25
2022-08-19T09:58:02.969Z,40.57
2022-08-19T10:00:32.807Z,40.00
2022-08-19T10:03:01.340Z,40.64
2022-08-19T10:05:48.513Z,40.26
2022-08-19T10:08:20.839Z,39.41
2022-08-19T10:10:51.676Z,40.37
2022-08-19T10:13:25.925Z,42.54
2022-08-19T10:16:06.895Z,43.28
2022-08-19T10:18:39.242Z,40.29
2022-08-19T10:21:21.376Z,41.53
2022-08-19T10:23:52.455Z,42.09
2022-08-19T10:26:26.495Z,42.58
2022-08-19T10:28:56.040Z,42.24
2022-08-19T10:32:00.803Z,41.62
2022-08-19T10:34:27.589Z,38.90
2022-08-19T10:37:00.956Z,38.38
2022-08-19T10:39:32.641Z,37.19
2022-08-19T10:42:14.236Z,39.21
2022-08-19T10:44:43.201Z,38.74
2022-08-19T10:47:17.969Z,37.81
2022-08-19T10:50:12.506Z,38.51
2022-08-19T10:52:49.773Z,39.48
2022-08-19T10:55:38.659Z,39.11
2022-08-19T10:58:14.224Z,37.91
2022-08-19T11:00:43.588Z,37.38
2022-08-19T11:03:12.647Z,36.41
2022-08-19T11:05:41.874Z,38.23
2022-08-19T11:08:22.442Z,35.60
2022-08-19T11:11:00.398Z,37.09
2022-08-19T11:13:32.635Z,37.87
2022-08-19T11:16:07.736Z,38.62
2022-08-19T11:18:40.311Z,38.19
2022-08-19T11:21:12.651Z,38.29
2022-08-19T11:23:41.333Z,36.86
2022-08-19T11:26:09.780Z,36.84
2022-08-19T11:28:40.527Z,35.89
2022-08-19T11:31:13.814Z,36.06
2022-08-19T11:33:42.588Z,36.47
2022-08-19T11:36:16.321Z,36.81
2022-08-19T11:38:45.634Z,38.73
2022-08-19T11:41:14.157Z,36.70
2022-08-19T11:43:44.408Z,36.78
2022-08-19T11:46:16.193Z,37.27
2022-08-19T11:48:45.218Z,38.26
2022-08-19T11:51:16.215Z,36.89
2022-08-19T11:53:45.422Z,38.79
2022-08-19T11:56:14.661Z,37.96
2022-08-19T11:58:44.734Z,38.30
2022-08-19T12:01:16.446Z,37.77
2022-08-19T12:03:45.906Z,37.82
2022-08-19T12:06:17.931Z,37.70
2022-08-19T12:08:48.438Z,38.07
2022-08-19T12:11:17.063Z,37.42
2022-08-19T12:13:47.251Z,37.44
2022-08-19T12:16:20.026Z,38.95
2022-08-19T12:18:49.301Z,35.54
2022-08-19T12:21:22.125Z,38.15
2022-08-19T12:23:55.716Z,35.37
2022-08-19T12:26:25.460Z,37.05
2022-08-19T12:28:55.982Z,36.09
2022-08-19T12:31:24.559Z,36.03
2022-08-19T12:33:53.382Z,37.39
2022-08-19T12:36:22.983Z,38.61
2022-08-19T12:38:51.964Z,35.90
2022-08-19T12:41:23.272Z,35.45
2022-08-19T12:43:52.145Z,39.20
2022-08-19T12:46:23.752Z,36.22
2022-08-19T12:48:56.229Z,39.78
2022-08-19T12:51:26.261Z,35.24
2022-08-19T12:53:54.699Z,36.88
2022-08-19T12:56:23.500Z,36.77
2022-08-19T12:58:53.087Z,35.71
2022-08-19T13:01:23.545Z,36.01
2022-08-19T13:03:54.150Z,36.12
2022-08-19T13:06:23.623Z,35.23
2022-08-19T13:08:55.433Z,40.46
2022-08-19T13:11:26.460Z,36.38
2022-08-19T13:13:56.175Z,37.19
2022-08-19T13:16:27.287Z,38.98
2022-08-19T13:18:57.515Z,39.02
2022-08-19T13:21:30.895Z,36.24
2022-08-19T13:24:00.067Z,38.44
2022-08-19T13:26:28.452Z,35.84
2022-08-19T13:29:14.542Z,36.04
2022-08-19T13:32:02.223Z,36.88
2022-08-19T13:34:36.619Z,35.36
2022-08-19T13:37:06.859Z,33.99
2022-08-19T13:39:37.502Z,37.08
2022-08-19T13:42:08.170Z,34.46
2022-08-19T13:44:36.637Z,34.57
2022-08-19T13:47:09.160Z,34.82
2022-08-19T13:49:38.598Z,36.39
2022-08-19T13:52:07.902Z,35.33
2022-08-19T13:54:36.319Z,34.86
2022-08-19T13:57:06.099Z,35.35
2022-08-19T13:59:34.725Z,37.34
2022-08-19T14:02:06.508Z,34.58
2022-08-19T14:04:34.964Z,34.31
2022-08-19T14:07:03.355Z,35.15
2022-08-19T14:09:32.357Z,39.15
2022-08-19T14:12:00.717Z,35.12
2022-08-19T14:14:30.069Z,34.78
2022-08-19T14:16:58.581Z,34.33
2022-08-19T14:19:30.053Z,36.81
2022-08-19T14:21:59.622Z,37.41
2022-08-19T14:24:28.158Z,36.44
2022-08-19T14:26:56.840Z,38.03
2022-08-19T14:29:25.223Z,35.85
2022-08-19T14:31:53.788Z,34.10
2022-08-19T14:34:23.141Z,34.92
2022-08-19T14:36:53.003Z,33.98
2022-08-19T14:39:22.298Z,35.20
2022-08-19T14:41:50.729Z,34.85
2022-08-19T14:44:19.327Z,37.62
2022-08-19T14:46:49.296Z,35.30
2022-08-19T14:49:19.373Z,34.48
2022-08-19T14:51:48.648Z,35.79
2022-08-19T14:54:18.425Z,34.93
2022-08-19T14:56:47.344Z,37.17
2022-08-19T14:59:16.048Z,34.06
2022-08-19T15:01:44.729Z,34.37
2022-08-19T15:04:13.253Z,35.54
2022-08-19T15:06:43.302Z,36.74
2022-08-19T15:09:12.210Z,36.92
2022-08-19T15:11:42.221Z,37.10
2022-08-19T15:14:11.104Z,33.84
2022-08-19T15:16:42.660Z,33.52
2022-08-19T15:19:12.761Z,33.08
2022-08-19T15:21:41.275Z,35.71
2022-08-19T15:24:10.208Z,34.67
2022-08-19T15:26:38.654Z,33.30
2022-08-19T15:29:09.219Z,34.55
2022-08-19T15:31:38.261Z,34.00
2022-08-19T15:34:08.060Z,33.63
2022-08-19T15:36:37.173Z,33.99
2022-08-19T15:39:07.518Z,33.17
2022-08-19T15:41:36.994Z,32.60
2022-08-19T15:44:10.844Z,32.92
2022-08-19T15:46:42.418Z,35.49
2022-08-19T15:49:12.251Z,33.52
2022-08-19T15:51:43.133Z,32.62
2022-08-19T15:54:15.299Z,32.57
2022-08-19T15:57:01.201Z,34.33
2022-08-19T15:59:48.406Z,35.97
2022-08-19T16:02:39.044Z,33.08
2022-08-19T16:05:29.590Z,32.69
2022-08-19T16:07:58.156Z,33.15
2022-08-19T16:10:28.181Z,33.03
2022-08-19T16:12:58.261Z,34.51
2022-08-19T16:15:30.563Z,32.79
2022-08-19T16:18:03.319Z,32.21
2022-08-19T16:20:33.197Z,31.71
2022-08-19T16:23:05.183Z,31.94
2022-08-19T16:25:33.825Z,31.58
2022-08-19T16:28:07.135Z,32.81
2022-08-19T16:30:39.559Z,31.97
2022-08-19T16:33:09.139Z,32.21
2022-08-19T16:35:37.805Z,34.22
2022-08-19T16:38:07.027Z,32.92
2022-08-19T16:40:36.755Z,34.25
2022-08-19T16:43:05.972Z,34.38
2022-08-19T16:45:34.416Z,32.77
2022-08-19T16:48:04.785Z,32.48
2022-08-19T16:50:48.648Z,32.90
2022-08-19T16:53:20.397Z,32.87
2022-08-19T16:55:50.833Z,32.36
2022-08-19T16:58:19.499Z,33.45
2022-08-19T17:00:48.640Z,32.20
2022-08-19T17:03:35.650Z,32.03
2022-08-19T17:06:18.499Z,34.44
2022-08-19T17:08:50.658Z,33.14
2022-08-19T17:11:21.234Z,35.13
2022-08-19T17:13:52.153Z,33.79
2022-08-19T17:16:24.509Z,33.43
2022-08-19T17:18:55.449Z,34.34
2022-08-19T17:21:28.899Z,35.45
2022-08-19T17:23:58.352Z,33.26
2022-08-19T17:26:28.073Z,32.33
2022-08-19T17:28:59.194Z,33.57
2022-08-19T17:31:31.270Z,35.43
2022-08-19T17:34:01.837Z,35.25
2022-08-19T17:36:34.133Z,35.78
2022-08-19T17:39:04.873Z,35.92
2022-08-19T17:41:35.068Z,34.35
2022-08-19T17:44:04.061Z,33.40
2022-08-19T17:46:33.040Z,33.56
2022-08-19T17:49:02.898Z,33.51
2022-08-19T17:51:45.486Z,33.11
2022-08-19T17:54:17.388Z,33.61
2022-08-19T17:56:46.357Z,33.68
2022-08-19T17:59:16.313Z,33.78
2022-08-19T18:01:53.124Z,33.86
2022-08-19T18:04:25.839Z,34.22
2022-08-19T18:06:55.808Z,34.18
2022-08-19T18:09:26.817Z,35.00
2022-08-19T18:11:57.827Z,36.68
2022-08-19T18:14:33.652Z,34.67
2022-08-19T18:17:06.123Z,34.64
2022-08-19T18:19:42.217Z,34.79
2022-08-19T18:22:13.427Z,35.21
2022-08-19T18:24:42.911Z,35.42
2022-08-19T18:27:15.211Z,35.49
2022-08-19T18:29:43.762Z,35.87
2022-08-19T18:32:13.685Z,36.88
2022-08-19T18:34:45.866Z,35.96
2022-08-19T18:37:14.446Z,35.78
2022-08-19T18:40:00.300Z,35.95
2022-08-19T18:42:46.818Z,36.11
2022-08-19T18:45:33.265Z,36.15
2022-08-19T18:48:27.640Z,36.51
2022-08-19T18:51:00.945Z,36.57
2022-08-19T18:53:34.158Z,36.53
2022-08-19T18:56:02.985Z,36.99
2022-08-19T18:58:34.854Z,37.18
2022-08-19T19:01:11.200Z,36.91
2022-08-19T19:03:44.249Z,38.87
2022-08-19T19:06:15.679Z,37.33
2022-08-19T19:08:44.621Z,37.45
2022-08-19T19:11:13.211Z,37.53
2022-08-19T19:13:46.125Z,37.52
2022-08-19T19:16:14.679Z,37.31
2022-08-19T19:18:44.592Z,38.76
2022-08-19T19:21:14.403Z,39.27
2022-08-19T19:23:42.918Z,38.55
2022-08-19T19:26:13.553Z,38.05
2022-08-19T19:28:45.615Z,38.70
2022-08-19T19:31:17.632Z,38.20
2022-08-19T19:33:47.047Z,38.05
2022-08-19T19:36:17.663Z,38.55
2022-08-19T19:38:48.806Z,38.30
2022-08-19T19:41:23.378Z,38.45
2022-08-19T19:44:10.002Z,38.13
2022-08-19T19:46:42.668Z,39.23
2022-08-19T19:49:12.107Z,38.84
2022-08-19T19:51:43.585Z,39.06
2022-08-19T19:54:14.685Z,38.70
2022-08-19T19:56:45.376Z,39.34
2022-08-19T19:59:14.230Z,38.95
2022-08-19T20:01:47.149Z,39.57
2022-08-19T20:04:16.765Z,40.14
2022-08-19T20:06:47.307Z,39.71
2022-08-19T20:09:19.745Z,40.37
2022-08-19T20:11:53.477Z,41.32
2022-08-19T20:14:26.477Z,40.40
2022-08-19T20:16:56.836Z,41.23
2022-08-19T20:19:32.803Z,40.43
2022-08-19T20:22:02.877Z,40.76
2022-08-19T20:24:36.352Z,40.96
2022-08-19T20:27:06.793Z,40.79
2022-08-19T20:29:38.942Z,41.65
2022-08-19T20:32:10.192Z,41.66
2022-08-19T20:34:39.062Z,41.69
2022-08-19T20:37:09.922Z,42.68
2022-08-19T20:39:39.155Z,41.34
2022-08-19T20:42:07.968Z,41.65
2022-08-19T20:44:37.788Z,42.47
2022-08-19T20:47:06.695Z,41.83
2022-08-19T20:49:35.410Z,41.47
2022-08-19T20:52:06.293Z,41.74
2022-08-19T20:54:36.263Z,41.92
2022-08-19T20:57:05.499Z,42.09
2022-08-19T20:59:34.396Z,42.06
2022-08-19T21:02:02.884Z,42.52
2022-08-19T21:04:31.406Z,41.99
2022-08-19T21:07:00.173Z,42.90
2022-08-19T21:09:28.670Z,42.70
2022-08-19T21:11:58.467Z,43.74
2022-08-19T21:14:27.035Z,42.67
2022-08-19T21:16:55.643Z,44.19
2022-08-19T21:19:24.340Z,42.84
2022-08-19T21:21:53.386Z,43.52
2022-08-19T21:24:21.877Z,44.24
2022-08-19T21:27:00.448Z,43.23
2022-08-19T21:29:29.005Z,43.49
2022-08-19T21:31:57.423Z,43.69
2022-08-19T21:34:25.904Z,43.45
2022-08-19T21:36:54.370Z,43.55
2022-08-19T21:39:22.737Z,43.63
2022-08-19T21:41:51.343Z,43.81
2022-08-19T21:44:21.110Z,43.95
2022-08-19T21:46:50.497Z,43.93
2022-08-19T21:49:19.662Z,44.18
2022-08-19T21:51:48.198Z,44.55
2022-08-19T21:54:16.649Z,44.51
2022-08-19T21:56:45.061Z,44.31
2022-08-19T21:59:13.394Z,44.50
2022-08-19T22:01:48.727Z,45.06
2022-08-19T22:04:18.935Z,45.08
2022-08-19T22:06:47.663Z,45.50
2022-08-19T22:09:16.102Z,46.08
2022-08-19T22:11:44.513Z,46.21
2022-08-19T22:14:12.931Z,46.40
2022-08-19T22:16:43.139Z,46.64
2022-08-19T22:19:12.869Z,47.03
2022-08-19T22:21:41.436Z,47.12
2022-08-19T22:24:11.036Z,47.32
2022-08-19T22:26:39.520Z,47.38
2022-08-19T22:29:08.298Z,48.05
2022-08-19T22:31:37.625Z,47.92
2022-08-19T22:34:07.800Z,47.86
2022-08-19T22:36:36.239Z,48.45
2022-08-19T22:39:05.643Z,48.68
2022-08-19T22:41:34.706Z,48.52
2022-08-19T22:44:03.855Z,48.19
2022-08-19T22:46:33.652Z,48.86
2022-08-19T22:49:02.039Z,48.66
2022-08-19T22:51:48.507Z,48.96
2022-08-19T22:54:17.296Z,49.14
2022-08-19T22:56:45.763Z,49.85
2022-08-19T22:59:14.305Z,49.88
2022-08-19T23:01:42.827Z,50.19
2022-08-19T23:04:11.421Z,50.36
2022-08-19T23:06:42.432Z,50.34
2022-08-19T23:09:17.449Z,50.74
2022-08-19T23:11:46.963Z,51.44
2022-08-19T23:14:17.647Z,51.45
2022-08-19T23:16:50.829Z,51.95
2022-08-19T23:19:21.349Z,51.88
2022-08-19T23:21:52.679Z,52.33
2022-08-19T23:24:21.246Z,53.14
2022-08-19T23:27:07.156Z,53.15
2022-08-19T23:29:53.166Z,53.19
2022-08-19T23:32:22.785Z,53.17
2022-08-19T23:34:51.257Z,53.25
2022-08-19T23:37:21.046Z,53.66
2022-08-19T23:39:50.017Z,54.02
2022-08-19T23:42:18.541Z,54.17
2022-08-19T23:44:52.249Z,54.63
2022-08-19T23:47:22.226Z,55.05
2022-08-19T23:49:51.183Z,55.11
2022-08-19T23:52:21.370Z,55.49
2022-08-19T23:54:49.921Z,55.43
2022-08-19T23:57:18.516Z,55.93
2022-08-19T23:59:46.902Z,55.98
